• Join FlightAware (Why Join?)
  • Login
  • US Flag 
Trick or treat! (Boo!!) 
11:17AM EDT


 

Airport Tracker/Info


-or-


 

Live Flight TrackerFlight Track Log ✈ SWA902 ✈ 28-Apr-2013 ✈ KIAD - KMDW

Flight Track Log - Related Links

Times and Time Zones

All times are in EDT time to prevent confusion due to time zone crossing. See the SWA902 flight status page for this flight to view local times or setup timezone preferences in your user account.

Time Position Orientation Groundspeed Altitude Reporting Facility
EDT Latitude Longitude Course Direction KTS MPH feet Rate Location/Type
08:04AM 38.8833 -77.4833 288° West 234 269 3,900  Level Potomac TRACON
08:06AM 38.8911 -77.6800 273° West 286 329 11,100 3,480 Climbing Washington Center
08:07AM 38.9081 -77.7872 282° West 320 368 14,400 3,420 Climbing Washington Center
08:08AM 38.9203 -77.9128 277° West 345 397 18,000 3,240 Climbing Washington Center
08:09AM 38.9386 -78.0417 280° West 358 412 20,900 3,000 Climbing Washington Center
08:10AM 38.9326 -78.1636 288° West  Level FlightAware Approximate
08:10AM 38.9544 -78.1756 279° West 375 432 24,000  Level Washington Center
08:11AM 38.9639 -78.3147 275° West 385 443 26,400 2,280 Climbing Washington Center
08:12AM 38.9689 -78.4564 273° West 399 459 28,700 2,280 Climbing Washington Center
08:13AM 38.9736 -78.6033 272° West 406 467 30,900 1,860 Climbing Washington Center
08:14AM 38.9761 -78.7506 271° West 412 474 32,400 1,020 Climbing Washington Center
08:15AM 38.9808 -78.8894 273° West 407 468 33,000 300 Climbing Washington Center
08:16AM 38.9853 -79.0258 272° West 401 461 33,000  Level Washington Center
08:17AM 38.9897 -79.1650 272° West 396 456 33,000  Level Washington Center
08:18AM 38.9917 -79.3039 271° West 396 456 33,000  Level Washington Center
08:19AM 38.9936 -79.4431 271° West 396 456 33,000 360 Level Washington Center
08:20AM 38.9967 -79.5981 272° West 396 456 33,800 480 Climbing Washington Center
08:21AM 39.0006 -79.7292 272° West 401 461 34,000 60 Climbing Washington Center
08:22AM 39.0039 -79.8789 272° West 393 452 34,000  Level Washington Center
08:25AM 39.0072 -80.2083 271° West 385 443 34,000  Level Indianapolis Center
08:26AM 39.0106 -80.3472 272° West 389 448 34,000  Level Indianapolis Center
08:27AM 39.0389 -80.4806 285° West 400 460 34,000  Level Indianapolis Center
08:28AM 39.0942 -80.6064 300° West 405 466 34,000  Level Indianapolis Center
08:29AM 39.1489 -80.7347 299° West 409 471 34,000  Level Indianapolis Center
08:30AM 39.2072 -80.8636 300° West 416 479 34,000  Level Indianapolis Center
08:31AM 39.2631 -80.9931 299° West 416 479 34,000  Level Indianapolis Center
08:32AM 39.3317 -81.1511 299° West 422 486 34,000  Level Indianapolis Center
08:33AM 39.3892 -81.2819 300° West 421 484 34,000 480 Level Indianapolis Center
08:34AM 39.4469 -81.4153 299° West 425 489 35,000 1,800 Climbing Indianapolis Center
08:35AM 39.5019 -81.5444 299° West 414 476 37,700 2,220 Climbing Indianapolis Center
08:36AM 39.5547 -81.6664 299° West 392 451 39,600 1,080 Climbing Indianapolis Center
08:37AM 39.6069 -81.7881 299° West 389 448 40,000 180 Climbing Indianapolis Center
08:38AM 39.6583 -81.9089 299° West 385 443 40,000  Level Indianapolis Center
08:39AM 39.7094 -82.0328 298° West 388 447 40,000  Level Indianapolis Center
08:40AM 39.7628 -82.1569 299° West 391 450 40,000  Level Indianapolis Center
08:41AM 39.8156 -82.2817 299° West 391 450 40,000  Level Indianapolis Center
08:42AM 39.8761 -82.4292 298° West 393 452 40,000  Level Indianapolis Center
08:43AM 39.9294 -82.5569 299° West 399 459 40,000  Level Indianapolis Center
08:44AM 39.9831 -82.6850 299° West 400 460 40,000  Level Indianapolis Center
08:45AM 40.0378 -82.8156 299° West 406 467 40,000  Level Indianapolis Center
08:46AM 40.0922 -82.9489 298° West 414 476 40,000  Level Indianapolis Center
08:47AM 40.1467 -83.0817 298° West 414 476 40,000  Level Indianapolis Center
08:48AM 40.2006 -83.2147 298° West 415 478 40,000  Level Indianapolis Center
08:49AM 40.2550 -83.3469 298° West 413 475 40,000  Level Indianapolis Center
08:50AM 40.3089 -83.4794 298° West 411 473 40,000  Level Indianapolis Center
08:51AM 40.3611 -83.6117 297° West 408 470 40,000 -360 Level Indianapolis Center
08:52AM 40.4144 -83.7447 298° West 410 472 39,300 -840 Descending Indianapolis Center
08:53AM 40.4686 -83.8797 298° West 414 476 38,300 -900 Descending Indianapolis Center
08:54AM 40.5156 -84.0217 294° West 421 484 37,500 -660 Descending Indianapolis Center
08:55AM 40.5339 -84.1731 279° West 418 481 37,000 -420 Descending Indianapolis Center
08:56AM 40.5517 -84.3242 279° West 416 479 36,700 -780 Descending Indianapolis Center
08:57AM 40.6225 -84.4825 301° West 434 499 35,500 -1,020 Descending Indianapolis Center
08:58AM 40.6522 -84.5389 305° West 433 498 35,100 -960 Descending Chicago Center
08:59AM 40.7342 -84.7011 304° West 441 507 34,000 -1,020 Descending Chicago Center
09:00AM 40.8039 -84.8344 305° West 442 509 33,000 -960 Descending Chicago Center
09:01AM 40.8831 -84.9614 310° West 446 513 32,100 -960 Descending Chicago Center
09:02AM 40.9594 -85.0869 309° West 441 507 31,100 -1,080 Descending Chicago Center
09:03AM 41.0356 -85.2094 310° West 434 499 30,000 -1,620 Descending Chicago Center
09:04AM 41.1114 -85.3364 308° West 436 502 27,900 -2,220 Descending Chicago Center
09:05AM 41.1864 -85.4603 309° West 431 496 25,500 -1,980 Descending Chicago Center
09:06AM 41.2589 -85.5811 309° West 417 480 23,900 -1,320 Descending Chicago Center
09:07AM 41.3289 -85.6981 309° West 405 466 22,900 -1,080 Descending Chicago Center
09:08AM 41.3978 -85.8142 308° West 399 459 21,700 -1,920 Descending Chicago Center
09:09AM 41.4769 -85.9494 308° West 384 442 19,000 -2,520 Descending Chicago Center
09:10AM 41.5244 -86.0681 298° West 379 436 16,600 -2,340 Descending Chicago Center
09:11AM 41.5239 -86.1992 270° West 358 412 14,300 -2,280 Descending Chicago Center
09:12AM 41.5233 -86.3297 270° West 353 406 12,000 -1,860 Descending Chicago Center
09:13AM 41.5228 -86.4553 270° West 343 395 10,600 -1,020 Descending Chicago Center
09:14AM 41.5208 -86.5736 269° West 326 375 10,000 -300 Descending Chicago Center
09:15AM 41.5200 -86.6903 269° West 318 366 10,000  Level Chicago Center
09:16AM 41.5194 -86.8111 270° West 321 369 10,000 -60 Level Chicago Center
09:17AM 41.5178 -86.9283 269° West 320 368 9,900 -1,080 Descending Chicago Center
09:19AM 41.5175 -87.0553 270° West 291 335 7,900 -1,860 Descending Chicago Center
09:19AM 41.5167 -87.1333 269° West 282 325 6,800 -1,140 Descending Chicago TRACON
09:20AM 41.5167 -87.2333 270° West 271 312 6,000 -420 Descending Chicago TRACON
09:21AM 41.5167 -87.3333 270° West 275 316 6,000 -240 Level Chicago TRACON
09:22AM 41.5333 -87.4333 283° West 274 315 5,600 -540 Descending Chicago TRACON
09:23AM 41.5328 -87.4556 268° West 273 314 5,300 -1,080 Descending Chicago Center
09:24AM 41.5578 -87.5733 286° West 277 319 4,100 -660 Descending Chicago Center
09:25AM 41.5661 -87.6739 276° West 277 319 4,000 -300 Descending Chicago Center
09:27AM 41.6022 -87.8556 285° West 263 303 3,300 -360 Descending Chicago Center
09:28AM 41.6478 -87.9136 316° Northwest 242 278 3,000 -180 Descending Chicago Center
09:29AM 41.6894 -87.8733 36° Northeast 208 239 3,000 -480 Level Chicago Center
09:30AM 41.7275 -87.8256 43° Northeast 176 203 2,100 -840 Descending Chicago Center
09:31AM 41.7539 -87.7922 43° Northeast 151 174 1,400 -540 Descending Chicago Center
09:32AM 41.7753 -87.7656 43° Northeast 139 160 1,000 -420 Descending Chicago Center